sensor_id;sensor_type;location;lat;lon;timestamp;P1;durP1;ratioP1;P2;durP2;ratioP2
54947;SDS011;41113;41.882;12.530;2023-04-01T00:00:46;18.20;;;6.75;;
54947;SDS011;41113;41.882;12.530;2023-04-01T00:03:12;18.65;;;5.38;;
54947;SDS011;41113;41.882;12.530;2023-04-01T00:05:38;23.02;;;6.30;;
54947;SDS011;41113;41.882;12.530;2023-04-01T00:08:03;25.30;;;6.60;;
54947;SDS011;41113;41.882;12.530;2023-04-01T00:10:28;18.30;;;5.68;;
54947;SDS011;41113;41.882;12.530;2023-04-01T00:12:54;28.55;;;6.93;;
54947;SDS011;41113;41.882;12.530;2023-04-01T00:15:19;20.88;;;6.22;;
54947;SDS011;41113;41.882;12.530;2023-04-01T00:17:45;21.38;;;6.07;;
54947;SDS011;41113;41.882;12.530;2023-04-01T00:20:11;17.10;;;5.57;;
54947;SDS011;41113;41.882;12.530;2023-04-01T00:22:37;22.27;;;5.70;;
54947;SDS011;41113;41.882;12.530;2023-04-01T00:25:03;21.33;;;6.25;;
54947;SDS011;41113;41.882;12.530;2023-04-01T00:27:29;20.00;;;5.82;;
54947;SDS011;41113;41.882;12.530;2023-04-01T00:29:54;19.98;;;5.60;;
54947;SDS011;41113;41.882;12.530;2023-04-01T00:32:20;20.17;;;5.95;;
54947;SDS011;41113;41.882;12.530;2023-04-01T00:34:45;18.55;;;5.95;;
54947;SDS011;41113;41.882;12.530;2023-04-01T00:37:11;22.40;;;5.68;;
54947;SDS011;41113;41.882;12.530;2023-04-01T00:39:36;30.73;;;6.75;;
54947;SDS011;41113;41.882;12.530;2023-04-01T00:42:02;27.75;;;7.00;;
54947;SDS011;41113;41.882;12.530;2023-04-01T00:44:29;22.90;;;6.18;;
54947;SDS011;41113;41.882;12.530;2023-04-01T00:46:57;20.95;;;5.60;;
54947;SDS011;41113;41.882;12.530;2023-04-01T00:49:24;22.02;;;6.53;;
54947;SDS011;41113;41.882;12.530;2023-04-01T00:51:55;21.15;;;5.72;;
54947;SDS011;41113;41.882;12.530;2023-04-01T00:54:22;22.65;;;6.40;;
54947;SDS011;41113;41.882;12.530;2023-04-01T00:56:54;20.33;;;6.50;;
54947;SDS011;41113;41.882;12.530;2023-04-01T00:59:24;23.48;;;6.65;;
54947;SDS011;41113;41.882;12.530;2023-04-01T01:01:56;21.00;;;6.65;;
54947;SDS011;41113;41.882;12.530;2023-04-01T01:04:22;20.95;;;6.68;;
54947;SDS011;41113;41.882;12.530;2023-04-01T01:15:11;21.25;;;6.18;;
54947;SDS011;41113;41.882;12.530;2023-04-01T01:31:51;21.92;;;6.47;;
54947;SDS011;41113;41.882;12.530;2023-04-01T01:37:17;23.48;;;7.07;;
54947;SDS011;41113;41.882;12.530;2023-04-01T01:39:53;20.70;;;7.05;;
54947;SDS011;41113;41.882;12.530;2023-04-01T01:42:23;22.95;;;7.05;;
54947;SDS011;41113;41.882;12.530;2023-04-01T01:44:51;19.20;;;6.78;;
54947;SDS011;41113;41.882;12.530;2023-04-01T01:47:19;23.92;;;7.00;;
54947;SDS011;41113;41.882;12.530;2023-04-01T01:49:47;23.42;;;6.85;;
54947;SDS011;41113;41.882;12.530;2023-04-01T01:52:13;20.52;;;7.15;;
54947;SDS011;41113;41.882;12.530;2023-04-01T01:54:52;19.52;;;7.05;;
54947;SDS011;41113;41.882;12.530;2023-04-01T01:57:20;25.73;;;7.63;;
54947;SDS011;41113;41.882;12.530;2023-04-01T01:59:51;19.23;;;6.45;;
54947;SDS011;41113;41.882;12.530;2023-04-01T02:02:21;23.40;;;7.65;;
54947;SDS011;41113;41.882;12.530;2023-04-01T02:04:47;21.08;;;7.10;;
54947;SDS011;41113;41.882;12.530;2023-04-01T02:07:19;22.30;;;6.80;;
54947;SDS011;41113;41.882;12.530;2023-04-01T02:09:52;19.10;;;6.68;;
54947;SDS011;41113;41.882;12.530;2023-04-01T02:12:18;22.75;;;7.47;;
54947;SDS011;41113;41.882;12.530;2023-04-01T02:14:53;23.85;;;8.43;;
54947;SDS011;41113;41.882;12.530;2023-04-01T02:17:23;23.33;;;7.38;;
54947;SDS011;41113;41.882;12.530;2023-04-01T02:19:52;28.77;;;9.77;;
54947;SDS011;41113;41.882;12.530;2023-04-01T02:22:26;22.75;;;7.90;;
54947;SDS011;41113;41.882;12.530;2023-04-01T02:24:56;23.55;;;8.55;;
54947;SDS011;41113;41.882;12.530;2023-04-01T02:27:24;28.85;;;9.07;;
54947;SDS011;41113;41.882;12.530;2023-04-01T02:29:51;22.15;;;8.15;;
54947;SDS011;41113;41.882;12.530;2023-04-01T02:32:17;30.00;;;9.52;;
54947;SDS011;41113;41.882;12.530;2023-04-01T02:34:44;25.65;;;9.20;;
54947;SDS011;41113;41.882;12.530;2023-04-01T02:37:11;27.42;;;8.88;;
54947;SDS011;41113;41.882;12.530;2023-04-01T02:39:38;25.77;;;8.60;;
54947;SDS011;41113;41.882;12.530;2023-04-01T02:42:07;31.20;;;8.82;;
54947;SDS011;41113;41.882;12.530;2023-04-01T02:44:33;30.67;;;8.38;;
54947;SDS011;41113;41.882;12.530;2023-04-01T02:46:58;28.38;;;8.95;;
54947;SDS011;41113;41.882;12.530;2023-04-01T02:49:24;21.92;;;8.82;;
54947;SDS011;41113;41.882;12.530;2023-04-01T02:51:49;26.00;;;8.75;;
54947;SDS011;41113;41.882;12.530;2023-04-01T02:54:14;25.35;;;8.70;;
54947;SDS011;41113;41.882;12.530;2023-04-01T02:56:40;30.48;;;9.88;;
54947;SDS011;41113;41.882;12.530;2023-04-01T02:59:05;25.35;;;8.48;;
54947;SDS011;41113;41.882;12.530;2023-04-01T03:01:30;30.80;;;9.18;;
54947;SDS011;41113;41.882;12.530;2023-04-01T03:03:56;30.05;;;8.88;;
54947;SDS011;41113;41.882;12.530;2023-04-01T03:06:21;28.48;;;9.00;;
54947;SDS011;41113;41.882;12.530;2023-04-01T03:08:47;21.80;;;7.88;;
54947;SDS011;41113;41.882;12.530;2023-04-01T03:11:13;21.25;;;7.97;;
54947;SDS011;41113;41.882;12.530;2023-04-01T03:13:38;22.67;;;8.02;;
54947;SDS011;41113;41.882;12.530;2023-04-01T03:16:04;21.98;;;7.45;;
54947;SDS011;41113;41.882;12.530;2023-04-01T03:18:29;29.77;;;8.77;;
54947;SDS011;41113;41.882;12.530;2023-04-01T03:20:55;21.13;;;7.05;;
54947;SDS011;41113;41.882;12.530;2023-04-01T03:23:20;23.48;;;8.55;;
54947;SDS011;41113;41.882;12.530;2023-04-01T03:25:46;27.88;;;10.02;;
54947;SDS011;41113;41.882;12.530;2023-04-01T03:28:11;20.92;;;8.48;;
54947;SDS011;41113;41.882;12.530;2023-04-01T03:30:38;29.80;;;8.82;;
54947;SDS011;41113;41.882;12.530;2023-04-01T03:33:04;23.73;;;9.43;;
54947;SDS011;41113;41.882;12.530;2023-04-01T03:35:29;29.90;;;8.57;;
54947;SDS011;41113;41.882;12.530;2023-04-01T03:37:55;30.05;;;9.25;;
54947;SDS011;41113;41.882;12.530;2023-04-01T03:40:21;28.23;;;8.85;;
54947;SDS011;41113;41.882;12.530;2023-04-01T03:42:47;31.63;;;10.35;;
54947;SDS011;41113;41.882;12.530;2023-04-01T03:45:13;30.50;;;9.25;;
54947;SDS011;41113;41.882;12.530;2023-04-01T03:47:38;33.60;;;9.77;;
54947;SDS011;41113;41.882;12.530;2023-04-01T03:50:05;30.08;;;9.35;;
54947;SDS011;41113;41.882;12.530;2023-04-01T03:52:31;29.48;;;10.25;;
54947;SDS011;41113;41.882;12.530;2023-04-01T03:54:57;29.15;;;9.38;;
54947;SDS011;41113;41.882;12.530;2023-04-01T03:57:22;25.00;;;9.43;;
54947;SDS011;41113;41.882;12.530;2023-04-01T03:59:48;28.00;;;9.75;;
54947;SDS011;41113;41.882;12.530;2023-04-01T04:02:13;28.67;;;9.63;;
54947;SDS011;41113;41.882;12.530;2023-04-01T04:04:39;26.90;;;9.65;;
54947;SDS011;41113;41.882;12.530;2023-04-01T04:07:05;29.90;;;10.10;;
54947;SDS011;41113;41.882;12.530;2023-04-01T04:09:31;27.75;;;10.05;;
54947;SDS011;41113;41.882;12.530;2023-04-01T04:11:57;28.48;;;9.77;;
54947;SDS011;41113;41.882;12.530;2023-04-01T04:14:22;30.13;;;9.35;;
54947;SDS011;41113;41.882;12.530;2023-04-01T04:16:48;26.25;;;8.35;;
54947;SDS011;41113;41.882;12.530;2023-04-01T04:19:13;21.92;;;9.00;;
54947;SDS011;41113;41.882;12.530;2023-04-01T04:21:39;25.40;;;9.23;;
54947;SDS011;41113;41.882;12.530;2023-04-01T04:24:05;28.08;;;9.43;;
54947;SDS011;41113;41.882;12.530;2023-04-01T04:26:31;24.85;;;10.18;;
54947;SDS011;41113;41.882;12.530;2023-04-01T04:28:56;27.70;;;10.10;;
54947;SDS011;41113;41.882;12.530;2023-04-01T04:31:22;26.05;;;10.07;;
54947;SDS011;41113;41.882;12.530;2023-04-01T04:33:49;35.78;;;10.07;;
54947;SDS011;41113;41.882;12.530;2023-04-01T04:36:15;27.67;;;9.20;;
54947;SDS011;41113;41.882;12.530;2023-04-01T04:38:40;21.63;;;8.00;;
54947;SDS011;41113;41.882;12.530;2023-04-01T04:41:12;38.17;;;9.93;;
54947;SDS011;41113;41.882;12.530;2023-04-01T04:43:39;24.05;;;8.40;;
54947;SDS011;41113;41.882;12.530;2023-04-01T04:46:06;22.38;;;7.22;;
54947;SDS011;41113;41.882;12.530;2023-04-01T04:48:32;27.65;;;8.50;;
54947;SDS011;41113;41.882;12.530;2023-04-01T04:50:58;24.67;;;8.07;;
54947;SDS011;41113;41.882;12.530;2023-04-01T04:53:23;28.73;;;9.15;;
54947;SDS011;41113;41.882;12.530;2023-04-01T04:55:50;21.15;;;7.47;;
54947;SDS011;41113;41.882;12.530;2023-04-01T04:58:16;25.25;;;8.32;;
54947;SDS011;41113;41.882;12.530;2023-04-01T05:00:42;27.02;;;8.60;;
54947;SDS011;41113;41.882;12.530;2023-04-01T05:03:08;24.67;;;9.45;;
54947;SDS011;41113;41.882;12.530;2023-04-01T05:05:35;24.83;;;8.93;;
54947;SDS011;41113;41.882;12.530;2023-04-01T05:08:00;26.50;;;8.68;;
54947;SDS011;41113;41.882;12.530;2023-04-01T05:10:26;30.25;;;10.10;;
54947;SDS011;41113;41.882;12.530;2023-04-01T05:12:52;32.55;;;10.02;;
54947;SDS011;41113;41.882;12.530;2023-04-01T05:15:17;27.05;;;8.05;;
54947;SDS011;41113;41.882;12.530;2023-04-01T05:17:43;29.90;;;9.73;;
54947;SDS011;41113;41.882;12.530;2023-04-01T05:20:08;27.88;;;9.65;;
54947;SDS011;41113;41.882;12.530;2023-04-01T05:22:34;24.70;;;9.55;;
54947;SDS011;41113;41.882;12.530;2023-04-01T05:24:59;33.35;;;10.63;;
54947;SDS011;41113;41.882;12.530;2023-04-01T05:27:24;28.95;;;9.55;;
54947;SDS011;41113;41.882;12.530;2023-04-01T05:29:50;21.88;;;9.77;;
54947;SDS011;41113;41.882;12.530;2023-04-01T05:32:15;35.33;;;10.38;;
54947;SDS011;41113;41.882;12.530;2023-04-01T05:34:41;35.15;;;11.85;;
54947;SDS011;41113;41.882;12.530;2023-04-01T05:37:06;33.28;;;10.75;;
54947;SDS011;41113;41.882;12.530;2023-04-01T05:39:35;21.30;;;9.02;;
54947;SDS011;41113;41.882;12.530;2023-04-01T05:42:05;26.25;;;8.63;;
54947;SDS011;41113;41.882;12.530;2023-04-01T05:44:31;20.70;;;7.95;;
54947;SDS011;41113;41.882;12.530;2023-04-01T05:46:56;33.38;;;10.10;;
54947;SDS011;41113;41.882;12.530;2023-04-01T05:49:22;29.10;;;9.88;;
54947;SDS011;41113;41.882;12.530;2023-04-01T05:51:47;31.90;;;10.65;;
54947;SDS011;41113;41.882;12.530;2023-04-01T05:54:12;29.38;;;9.85;;
54947;SDS011;41113;41.882;12.530;2023-04-01T05:56:38;23.45;;;8.05;;
54947;SDS011;41113;41.882;12.530;2023-04-01T05:59:03;22.10;;;8.70;;
54947;SDS011;41113;41.882;12.530;2023-04-01T06:01:29;25.55;;;8.48;;
54947;SDS011;41113;41.882;12.530;2023-04-01T06:03:54;21.27;;;7.80;;
54947;SDS011;41113;41.882;12.530;2023-04-01T06:06:28;29.35;;;9.55;;
54947;SDS011;41113;41.882;12.530;2023-04-01T06:08:58;22.60;;;7.95;;
54947;SDS011;41113;41.882;12.530;2023-04-01T06:11:50;20.40;;;7.30;;
54947;SDS011;41113;41.882;12.530;2023-04-01T06:14:32;23.08;;;8.90;;
54947;SDS011;41113;41.882;12.530;2023-04-01T06:17:08;26.75;;;8.10;;
54947;SDS011;41113;41.882;12.530;2023-04-01T06:19:50;24.55;;;7.45;;
54947;SDS011;41113;41.882;12.530;2023-04-01T06:38:11;24.58;;;7.93;;
54947;SDS011;41113;41.882;12.530;2023-04-01T06:40:53;17.45;;;6.88;;
54947;SDS011;41113;41.882;12.530;2023-04-01T06:43:45;27.30;;;8.02;;
54947;SDS011;41113;41.882;12.530;2023-04-01T06:46:16;21.98;;;8.23;;
54947;SDS011;41113;41.882;12.530;2023-04-01T06:54:34;26.50;;;6.80;;
54947;SDS011;41113;41.882;12.530;2023-04-01T06:57:07;18.33;;;6.25;;
54947;SDS011;41113;41.882;12.530;2023-04-01T06:59:49;21.23;;;6.43;;
54947;SDS011;41113;41.882;12.530;2023-04-01T07:02:24;20.90;;;6.97;;
54947;SDS011;41113;41.882;12.530;2023-04-01T07:04:58;21.27;;;7.18;;
54947;SDS011;41113;41.882;12.530;2023-04-01T07:08:08;21.42;;;6.75;;
54947;SDS011;41113;41.882;12.530;2023-04-01T07:13:06;24.52;;;6.95;;
54947;SDS011;41113;41.882;12.530;2023-04-01T07:15:40;25.23;;;7.18;;
54947;SDS011;41113;41.882;12.530;2023-04-01T07:18:19;21.65;;;6.60;;
54947;SDS011;41113;41.882;12.530;2023-04-01T07:20:53;19.15;;;6.55;;
54947;SDS011;41113;41.882;12.530;2023-04-01T07:23:24;18.55;;;6.13;;
54947;SDS011;41113;41.882;12.530;2023-04-01T07:25:58;17.63;;;5.28;;
54947;SDS011;41113;41.882;12.530;2023-04-01T07:28:26;17.75;;;4.97;;
54947;SDS011;41113;41.882;12.530;2023-04-01T07:36:39;18.67;;;5.55;;
54947;SDS011;41113;41.882;12.530;2023-04-01T07:39:20;13.05;;;3.60;;
54947;SDS011;41113;41.882;12.530;2023-04-01T07:53:09;16.63;;;3.85;;
54947;SDS011;41113;41.882;12.530;2023-04-01T07:55:46;16.25;;;4.07;;
54947;SDS011;41113;41.882;12.530;2023-04-01T08:07:07;16.95;;;4.45;;
54947;SDS011;41113;41.882;12.530;2023-04-01T08:15:43;14.57;;;3.50;;
54947;SDS011;41113;41.882;12.530;2023-04-01T08:21:02;13.35;;;2.97;;
54947;SDS011;41113;41.882;12.530;2023-04-01T08:23:36;18.20;;;3.75;;
54947;SDS011;41113;41.882;12.530;2023-04-01T08:28:41;20.30;;;4.32;;
54947;SDS011;41113;41.882;12.530;2023-04-01T08:34:17;16.50;;;3.72;;
54947;SDS011;41113;41.882;12.530;2023-04-01T08:36:50;14.63;;;3.10;;
54947;SDS011;41113;41.882;12.530;2023-04-01T08:39:30;15.88;;;3.47;;
54947;SDS011;41113;41.882;12.530;2023-04-01T08:42:10;12.30;;;3.05;;
54947;SDS011;41113;41.882;12.530;2023-04-01T08:47:39;13.27;;;3.22;;
54947;SDS011;41113;41.882;12.530;2023-04-01T08:55:56;16.50;;;3.95;;
54947;SDS011;41113;41.882;12.530;2023-04-01T09:01:21;14.10;;;3.15;;
54947;SDS011;41113;41.882;12.530;2023-04-01T09:32:48;15.40;;;3.10;;
54947;SDS011;41113;41.882;12.530;2023-04-01T09:35:21;18.08;;;4.32;;
54947;SDS011;41113;41.882;12.530;2023-04-01T09:40:18;13.90;;;3.38;;
54947;SDS011;41113;41.882;12.530;2023-04-01T09:51:36;14.02;;;3.38;;
54947;SDS011;41113;41.882;12.530;2023-04-01T10:20:21;13.20;;;3.28;;
54947;SDS011;41113;41.882;12.530;2023-04-01T10:22:57;13.57;;;3.25;;
54947;SDS011;41113;41.882;12.530;2023-04-01T10:31:51;13.80;;;3.10;;
54947;SDS011;41113;41.882;12.530;2023-04-01T10:39:38;14.80;;;4.00;;
54947;SDS011;41113;41.882;12.530;2023-04-01T11:10:51;16.27;;;3.58;;
54947;SDS011;41113;41.882;12.530;2023-04-01T11:26:25;16.50;;;3.30;;
54947;SDS011;41113;41.882;12.530;2023-04-01T11:32:13;17.05;;;3.78;;
54947;SDS011;41113;41.882;12.530;2023-04-01T11:40:35;14.77;;;3.67;;
54947;SDS011;41113;41.882;12.530;2023-04-01T11:46:11;14.57;;;3.30;;
54947;SDS011;41113;41.882;12.530;2023-04-01T11:56:50;17.70;;;3.97;;
54947;SDS011;41113;41.882;12.530;2023-04-01T12:02:20;15.95;;;3.65;;
54947;SDS011;41113;41.882;12.530;2023-04-01T12:16:24;17.40;;;4.00;;
54947;SDS011;41113;41.882;12.530;2023-04-01T12:19:04;15.13;;;3.83;;
54947;SDS011;41113;41.882;12.530;2023-04-01T12:27:14;14.63;;;4.10;;
54947;SDS011;41113;41.882;12.530;2023-04-01T12:34:58;17.65;;;3.55;;
54947;SDS011;41113;41.882;12.530;2023-04-01T12:43:22;15.07;;;3.50;;
54947;SDS011;41113;41.882;12.530;2023-04-01T12:45:57;14.32;;;3.20;;
54947;SDS011;41113;41.882;12.530;2023-04-01T12:57:04;12.80;;;3.05;;
54947;SDS011;41113;41.882;12.530;2023-04-01T13:10:49;16.60;;;3.17;;
54947;SDS011;41113;41.882;12.530;2023-04-01T13:21:43;123.00;;;68.32;;
54947;SDS011;41113;41.882;12.530;2023-04-01T13:29:39;94.60;;;52.38;;
54947;SDS011;41113;41.882;12.530;2023-04-01T13:32:20;45.53;;;24.45;;
54947;SDS011;41113;41.882;12.530;2023-04-01T13:35:22;62.13;;;28.65;;
54947;SDS011;41113;41.882;12.530;2023-04-01T13:38:24;39.80;;;21.25;;
54947;SDS011;41113;41.882;12.530;2023-04-01T13:41:14;44.58;;;25.27;;
54947;SDS011;41113;41.882;12.530;2023-04-01T13:43:57;29.60;;;12.63;;
54947;SDS011;41113;41.882;12.530;2023-04-01T13:57:37;14.38;;;3.78;;
54947;SDS011;41113;41.882;12.530;2023-04-01T14:02:51;18.55;;;4.05;;
54947;SDS011;41113;41.882;12.530;2023-04-01T14:16:58;13.93;;;3.15;;
54947;SDS011;41113;41.882;12.530;2023-04-01T14:22:41;12.40;;;3.13;;
54947;SDS011;41113;41.882;12.530;2023-04-01T14:25:23;13.30;;;2.75;;
54947;SDS011;41113;41.882;12.530;2023-04-01T14:28:28;18.95;;;4.20;;
54947;SDS011;41113;41.882;12.530;2023-04-01T14:31:02;11.82;;;3.25;;
54947;SDS011;41113;41.882;12.530;2023-04-01T14:33:56;14.93;;;3.08;;
54947;SDS011;41113;41.882;12.530;2023-04-01T14:51:43;15.05;;;3.30;;
54947;SDS011;41113;41.882;12.530;2023-04-01T14:59:01;15.13;;;3.45;;
54947;SDS011;41113;41.882;12.530;2023-04-01T15:07:06;15.45;;;3.50;;
54947;SDS011;41113;41.882;12.530;2023-04-01T15:10:04;18.08;;;3.78;;
54947;SDS011;41113;41.882;12.530;2023-04-01T15:15:33;17.15;;;3.53;;
54947;SDS011;41113;41.882;12.530;2023-04-01T15:24:52;19.52;;;4.32;;
54947;SDS011;41113;41.882;12.530;2023-04-01T15:29:31;17.08;;;3.70;;
54947;SDS011;41113;41.882;12.530;2023-04-01T15:35:15;18.73;;;3.90;;
54947;SDS011;41113;41.882;12.530;2023-04-01T15:40:52;16.50;;;3.67;;
54947;SDS011;41113;41.882;12.530;2023-04-01T15:52:07;22.08;;;4.57;;
54947;SDS011;41113;41.882;12.530;2023-04-01T15:57:32;13.45;;;3.15;;
54947;SDS011;41113;41.882;12.530;2023-04-01T16:10:24;14.35;;;3.38;;
54947;SDS011;41113;41.882;12.530;2023-04-01T16:13:03;18.77;;;4.50;;
54947;SDS011;41113;41.882;12.530;2023-04-01T16:15:44;16.00;;;4.50;;
54947;SDS011;41113;41.882;12.530;2023-04-01T16:24:10;23.00;;;4.70;;
54947;SDS011;41113;41.882;12.530;2023-04-01T16:26:51;16.33;;;4.00;;
54947;SDS011;41113;41.882;12.530;2023-04-01T16:40:36;14.57;;;3.30;;
54947;SDS011;41113;41.882;12.530;2023-04-01T16:51:17;15.90;;;3.85;;
54947;SDS011;41113;41.882;12.530;2023-04-01T16:53:48;16.60;;;3.08;;
54947;SDS011;41113;41.882;12.530;2023-04-01T16:56:27;19.23;;;3.60;;
54947;SDS011;41113;41.882;12.530;2023-04-01T16:59:14;14.02;;;3.78;;
54947;SDS011;41113;41.882;12.530;2023-04-01T17:01:52;15.65;;;4.18;;
54947;SDS011;41113;41.882;12.530;2023-04-01T17:07:43;12.45;;;2.97;;
54947;SDS011;41113;41.882;12.530;2023-04-01T17:10:47;16.80;;;3.20;;
54947;SDS011;41113;41.882;12.530;2023-04-01T17:29:31;16.10;;;3.03;;
54947;SDS011;41113;41.882;12.530;2023-04-01T17:35:13;17.08;;;4.03;;
54947;SDS011;41113;41.882;12.530;2023-04-01T17:41:19;18.08;;;2.90;;
54947;SDS011;41113;41.882;12.530;2023-04-01T17:48:26;15.27;;;3.67;;
54947;SDS011;41113;41.882;12.530;2023-04-01T17:51:34;12.38;;;3.20;;
54947;SDS011;41113;41.882;12.530;2023-04-01T17:59:44;13.77;;;3.08;;
54947;SDS011;41113;41.882;12.530;2023-04-01T18:02:40;17.63;;;4.22;;
54947;SDS011;41113;41.882;12.530;2023-04-01T18:08:11;14.25;;;3.15;;
54947;SDS011;41113;41.882;12.530;2023-04-01T18:10:41;14.77;;;3.42;;
54947;SDS011;41113;41.882;12.530;2023-04-01T18:14:07;14.15;;;3.13;;
54947;SDS011;41113;41.882;12.530;2023-04-01T18:16:28;14.32;;;3.47;;
54947;SDS011;41113;41.882;12.530;2023-04-01T18:19:00;16.42;;;4.10;;
54947;SDS011;41113;41.882;12.530;2023-04-01T18:21:42;25.30;;;5.15;;
54947;SDS011;41113;41.882;12.530;2023-04-01T18:27:04;12.73;;;3.53;;
54947;SDS011;41113;41.882;12.530;2023-04-01T18:32:12;13.57;;;3.83;;
54947;SDS011;41113;41.882;12.530;2023-04-01T18:37:17;13.50;;;3.53;;
54947;SDS011;41113;41.882;12.530;2023-04-01T18:39:50;15.50;;;3.78;;
54947;SDS011;41113;41.882;12.530;2023-04-01T18:42:31;14.45;;;4.05;;
54947;SDS011;41113;41.882;12.530;2023-04-01T18:45:17;14.07;;;3.20;;
54947;SDS011;41113;41.882;12.530;2023-04-01T18:50:33;14.48;;;3.55;;
54947;SDS011;41113;41.882;12.530;2023-04-01T18:56:00;14.93;;;4.85;;
54947;SDS011;41113;41.882;12.530;2023-04-01T18:58:35;17.45;;;6.05;;
54947;SDS011;41113;41.882;12.530;2023-04-01T19:01:05;16.52;;;5.78;;
54947;SDS011;41113;41.882;12.530;2023-04-01T19:03:43;21.85;;;7.15;;
54947;SDS011;41113;41.882;12.530;2023-04-01T19:06:21;23.88;;;7.10;;
54947;SDS011;41113;41.882;12.530;2023-04-01T19:08:52;21.25;;;8.02;;
54947;SDS011;41113;41.882;12.530;2023-04-01T19:16:46;27.30;;;9.38;;
54947;SDS011;41113;41.882;12.530;2023-04-01T19:19:44;23.10;;;9.25;;
54947;SDS011;41113;41.882;12.530;2023-04-01T19:24:52;23.70;;;9.07;;
54947;SDS011;41113;41.882;12.530;2023-04-01T19:27:53;26.27;;;8.88;;
54947;SDS011;41113;41.882;12.530;2023-04-01T19:30:35;28.33;;;9.23;;
54947;SDS011;41113;41.882;12.530;2023-04-01T19:33:26;24.73;;;8.27;;
54947;SDS011;41113;41.882;12.530;2023-04-01T19:38:41;18.30;;;7.37;;
54947;SDS011;41113;41.882;12.530;2023-04-01T19:41:22;21.73;;;7.38;;
54947;SDS011;41113;41.882;12.530;2023-04-01T19:44:17;22.42;;;7.38;;
54947;SDS011;41113;41.882;12.530;2023-04-01T19:50:14;26.02;;;8.38;;
54947;SDS011;41113;41.882;12.530;2023-04-01T19:52:41;25.73;;;8.02;;
54947;SDS011;41113;41.882;12.530;2023-04-01T20:00:40;20.17;;;7.55;;
54947;SDS011;41113;41.882;12.530;2023-04-01T20:06:02;24.63;;;7.13;;
54947;SDS011;41113;41.882;12.530;2023-04-01T20:08:36;25.33;;;7.28;;
54947;SDS011;41113;41.882;12.530;2023-04-01T20:11:30;19.05;;;6.05;;
54947;SDS011;41113;41.882;12.530;2023-04-01T20:14:13;24.45;;;7.13;;
54947;SDS011;41113;41.882;12.530;2023-04-01T20:17:01;17.35;;;4.93;;
54947;SDS011;41113;41.882;12.530;2023-04-01T20:19:52;25.52;;;6.65;;
54947;SDS011;41113;41.882;12.530;2023-04-01T20:22:24;20.75;;;6.15;;
54947;SDS011;41113;41.882;12.530;2023-04-01T20:25:46;22.38;;;6.82;;
54947;SDS011;41113;41.882;12.530;2023-04-01T20:44:20;25.08;;;6.68;;
54947;SDS011;41113;41.882;12.530;2023-04-01T20:47:24;22.58;;;7.15;;
54947;SDS011;41113;41.882;12.530;2023-04-01T20:58:38;21.85;;;7.07;;
54947;SDS011;41113;41.882;12.530;2023-04-01T21:10:11;20.58;;;6.85;;
54947;SDS011;41113;41.882;12.530;2023-04-01T21:26:47;26.25;;;7.60;;
54947;SDS011;41113;41.882;12.530;2023-04-01T21:29:45;23.58;;;5.93;;
54947;SDS011;41113;41.882;12.530;2023-04-01T21:35:16;25.80;;;6.88;;
54947;SDS011;41113;41.882;12.530;2023-04-01T21:54:50;25.58;;;6.80;;
54947;SDS011;41113;41.882;12.530;2023-04-01T22:06:25;22.98;;;6.07;;
54947;SDS011;41113;41.882;12.530;2023-04-01T22:09:05;22.23;;;5.32;;
54947;SDS011;41113;41.882;12.530;2023-04-01T22:11:51;22.85;;;6.72;;
54947;SDS011;41113;41.882;12.530;2023-04-01T22:14:25;21.60;;;5.63;;
54947;SDS011;41113;41.882;12.530;2023-04-01T22:17:00;19.52;;;6.72;;
54947;SDS011;41113;41.882;12.530;2023-04-01T22:24:54;32.38;;;8.55;;
54947;SDS011;41113;41.882;12.530;2023-04-01T22:27:24;25.35;;;9.43;;
54947;SDS011;41113;41.882;12.530;2023-04-01T22:30:03;24.13;;;7.90;;
54947;SDS011;41113;41.882;12.530;2023-04-01T22:32:38;33.22;;;9.38;;
54947;SDS011;41113;41.882;12.530;2023-04-01T22:35:31;27.45;;;7.68;;
54947;SDS011;41113;41.882;12.530;2023-04-01T22:38:15;23.13;;;7.38;;
54947;SDS011;41113;41.882;12.530;2023-04-01T22:43:38;22.92;;;6.72;;
54947;SDS011;41113;41.882;12.530;2023-04-01T22:46:08;22.15;;;6.70;;
54947;SDS011;41113;41.882;12.530;2023-04-01T22:48:43;26.08;;;8.00;;
54947;SDS011;41113;41.882;12.530;2023-04-01T22:59:59;26.25;;;7.82;;
54947;SDS011;41113;41.882;12.530;2023-04-01T23:02:36;19.77;;;6.22;;
54947;SDS011;41113;41.882;12.530;2023-04-01T23:05:05;21.15;;;6.95;;
54947;SDS011;41113;41.882;12.530;2023-04-01T23:10:27;27.20;;;8.43;;
54947;SDS011;41113;41.882;12.530;2023-04-01T23:13:10;22.10;;;6.63;;
54947;SDS011;41113;41.882;12.530;2023-04-01T23:15:41;23.65;;;6.90;;
54947;SDS011;41113;41.882;12.530;2023-04-01T23:23:45;21.85;;;6.90;;
54947;SDS011;41113;41.882;12.530;2023-04-01T23:31:27;28.98;;;7.72;;
54947;SDS011;41113;41.882;12.530;2023-04-01T23:34:04;22.73;;;6.40;;
54947;SDS011;41113;41.882;12.530;2023-04-01T23:36:36;28.95;;;7.45;;
54947;SDS011;41113;41.882;12.530;2023-04-01T23:39:26;31.20;;;7.47;;
54947;SDS011;41113;41.882;12.530;2023-04-01T23:41:53;21.15;;;6.10;;
54947;SDS011;41113;41.882;12.530;2023-04-01T23:44:30;22.70;;;6.43;;
54947;SDS011;41113;41.882;12.530;2023-04-01T23:46:57;24.63;;;6.03;;
54947;SDS011;41113;41.882;12.530;2023-04-01T23:49:45;22.35;;;6.13;;
54947;SDS011;41113;41.882;12.530;2023-04-01T23:52:24;29.98;;;6.40;;
54947;SDS011;41113;41.882;12.530;2023-04-01T23:54:55;22.92;;;5.60;;
54947;SDS011;41113;41.882;12.530;2023-04-01T23:57:31;25.80;;;6.32;;
